sensor_id;sensor_type;location;lat;lon;timestamp;pressure;altitude;pressure_sealevel;temperature;humidity
3524;BME280;1776;53.330;11.498;2023-04-05T00:01:12;24231.56;;;-147.39;51.66
3524;BME280;1776;53.330;11.498;2023-04-05T00:03:37;24213.28;;;-147.39;51.43
3524;BME280;1776;53.330;11.498;2023-04-05T00:06:04;24176.66;;;-147.39;51.50
3524;BME280;1776;53.330;11.498;2023-04-05T00:08:30;24190.91;;;-147.39;51.52
3524;BME280;1776;53.330;11.498;2023-04-05T00:10:55;24231.56;;;-147.39;51.33
3524;BME280;1776;53.330;11.498;2023-04-05T00:13:21;24194.97;;;-147.39;51.33
3524;BME280;1776;53.330;11.498;2023-04-05T00:15:47;24170.56;;;-147.39;51.85
3524;BME280;1776;53.330;11.498;2023-04-05T00:18:12;24203.09;;;-147.39;51.82
3524;BME280;1776;53.330;11.498;2023-04-05T00:20:50;24302.75;;;-147.39;51.52
3524;BME280;1776;53.330;11.498;2023-04-05T00:23:15;24197.00;;;-147.39;51.64
3524;BME280;1776;53.330;11.498;2023-04-05T00:25:42;24235.63;;;-147.39;51.47
3524;BME280;1776;53.330;11.498;2023-04-05T00:28:08;23800.53;;;-147.39;51.61
3524;BME280;1776;53.330;11.498;2023-04-05T00:30:33;24186.84;;;-147.39;51.75
3524;BME280;1776;53.330;11.498;2023-04-05T00:32:58;24190.91;;;-147.39;51.77
3524;BME280;1776;53.330;11.498;2023-04-05T00:35:26;24140.06;;;-147.39;51.79
3524;BME280;1776;53.330;11.498;2023-04-05T00:37:51;24192.94;;;-147.39;51.99
3524;BME280;1776;53.330;11.498;2023-04-05T00:40:17;24241.75;;;-147.39;51.52
3524;BME280;1776;53.330;11.498;2023-04-05T00:42:42;24197.00;;;-147.39;51.67
3524;BME280;1776;53.330;11.498;2023-04-05T00:45:07;24231.56;;;-147.39;52.16
3524;BME280;1776;53.330;11.498;2023-04-05T00:47:33;24192.94;;;-147.39;52.38
3524;BME280;1776;53.330;11.498;2023-04-05T00:49:58;24160.41;;;-147.39;52.14
3524;BME280;1776;53.330;11.498;2023-04-05T00:52:24;24160.41;;;-147.39;52.39
3524;BME280;1776;53.330;11.498;2023-04-05T00:54:51;24178.72;;;-147.39;52.14
3524;BME280;1776;53.330;11.498;2023-04-05T00:57:17;24168.53;;;-147.39;52.75
3524;BME280;1776;53.330;11.498;2023-04-05T00:59:42;24190.91;;;-147.39;52.87
3524;BME280;1776;53.330;11.498;2023-04-05T01:04:54;24176.66;;;-147.39;53.00
3524;BME280;1776;53.330;11.498;2023-04-05T01:07:30;24221.41;;;-147.39;52.59
3524;BME280;1776;53.330;11.498;2023-04-05T01:10:02;24199.03;;;-147.39;53.00
3524;BME280;1776;53.330;11.498;2023-04-05T01:12:31;24172.59;;;-147.39;53.00
3524;BME280;1776;53.330;11.498;2023-04-05T01:14:58;24148.22;;;-147.39;52.78
3524;BME280;1776;53.330;11.498;2023-04-05T01:17:25;24131.94;;;-147.39;52.68
3524;BME280;1776;53.330;11.498;2023-04-05T01:20:02;24164.47;;;-147.39;52.85
3524;BME280;1776;53.330;11.498;2023-04-05T01:23:15;24105.50;;;-147.39;53.27
3524;BME280;1776;53.330;11.498;2023-04-05T01:31:45;24158.38;;;-147.39;53.78
3524;BME280;1776;53.330;11.498;2023-04-05T01:36:55;24109.56;;;-147.39;53.62
3524;BME280;1776;53.330;11.498;2023-04-05T01:39:22;24119.75;;;-147.39;53.77
3524;BME280;1776;53.330;11.498;2023-04-05T01:41:48;24123.81;;;-147.39;53.56
3524;BME280;1776;53.330;11.498;2023-04-05T01:44:14;24115.66;;;-147.39;53.91
3524;BME280;1776;53.330;11.498;2023-04-05T01:46:39;24111.59;;;-147.39;53.75
3524;BME280;1776;53.330;11.498;2023-04-05T01:49:05;24131.94;;;-147.39;53.92
3524;BME280;1776;53.330;11.498;2023-04-05T01:51:30;24095.34;;;-147.39;54.00
3524;BME280;1776;53.330;11.498;2023-04-05T01:53:56;24121.78;;;-147.39;53.66
3524;BME280;1776;53.330;11.498;2023-04-05T01:56:21;24087.22;;;-147.39;53.89
3524;BME280;1776;53.330;11.498;2023-04-05T01:58:46;24115.66;;;-147.39;53.65
3524;BME280;1776;53.330;11.498;2023-04-05T02:01:11;24111.59;;;-147.39;53.93
3524;BME280;1776;53.330;11.498;2023-04-05T02:03:37;24068.91;;;-147.39;54.04
3524;BME280;1776;53.330;11.498;2023-04-05T02:06:02;24101.44;;;-147.39;54.45
3524;BME280;1776;53.330;11.498;2023-04-05T02:08:28;24089.25;;;-147.39;54.06
3524;BME280;1776;53.330;11.498;2023-04-05T02:10:53;24105.50;;;-147.39;54.39
3524;BME280;1776;53.330;11.498;2023-04-05T02:13:18;24097.38;;;-147.39;54.35
3524;BME280;1776;53.330;11.498;2023-04-05T02:15:49;24101.44;;;-147.39;54.49
3524;BME280;1776;53.330;11.498;2023-04-05T02:18:16;24089.25;;;-147.39;54.51
3524;BME280;1776;53.330;11.498;2023-04-05T02:20:48;24048.56;;;-147.39;54.73
3524;BME280;1776;53.330;11.498;2023-04-05T02:23:14;24054.69;;;-147.39;54.94
3524;BME280;1776;53.330;11.498;2023-04-05T02:25:39;24123.81;;;-147.39;54.88
3524;BME280;1776;53.330;11.498;2023-04-05T02:28:04;24064.84;;;-147.39;54.94
3524;BME280;1776;53.330;11.498;2023-04-05T02:30:29;24072.97;;;-147.39;55.13
3524;BME280;1776;53.330;11.498;2023-04-05T02:32:55;24054.69;;;-147.39;55.38
3524;BME280;1776;53.330;11.498;2023-04-05T02:35:21;24064.84;;;-147.39;55.42
3524;BME280;1776;53.330;11.498;2023-04-05T02:37:47;24054.69;;;-147.39;55.09
3524;BME280;1776;53.330;11.498;2023-04-05T02:40:13;24046.53;;;-147.39;55.25
3524;BME280;1776;53.330;11.498;2023-04-05T02:42:40;24064.84;;;-147.39;55.43
3524;BME280;1776;53.330;11.498;2023-04-05T02:45:05;24042.47;;;-147.39;55.42
3524;BME280;1776;53.330;11.498;2023-04-05T02:47:32;24056.72;;;-147.39;55.60
3524;BME280;1776;53.330;11.498;2023-04-05T02:49:58;24028.25;;;-147.39;55.44
3524;BME280;1776;53.330;11.498;2023-04-05T02:52:23;24064.84;;;-147.39;55.09
3524;BME280;1776;53.330;11.498;2023-04-05T02:54:48;24052.63;;;-147.39;55.35
3524;BME280;1776;53.330;11.498;2023-04-05T02:57:15;24020.09;;;-147.39;55.53
3524;BME280;1776;53.330;11.498;2023-04-05T02:59:40;24018.06;;;-147.39;55.83
3524;BME280;1776;53.330;11.498;2023-04-05T03:02:07;24032.31;;;-147.39;55.75
3524;BME280;1776;53.330;11.498;2023-04-05T03:04:33;24030.28;;;-147.39;56.05
3524;BME280;1776;53.330;11.498;2023-04-05T03:07:01;24030.28;;;-147.39;56.12
3524;BME280;1776;53.330;11.498;2023-04-05T03:09:28;23999.78;;;-147.39;56.46
3524;BME280;1776;53.330;11.498;2023-04-05T03:12:00;24018.06;;;-147.39;56.31
3524;BME280;1776;53.330;11.498;2023-04-05T03:14:26;24026.22;;;-147.39;56.42
3524;BME280;1776;53.330;11.498;2023-04-05T03:16:52;23999.78;;;-147.39;56.44
3524;BME280;1776;53.330;11.498;2023-04-05T03:19:17;24034.34;;;-147.39;56.81
3524;BME280;1776;53.330;11.498;2023-04-05T03:21:49;24024.19;;;-147.39;57.25
3524;BME280;1776;53.330;11.498;2023-04-05T03:24:14;23993.69;;;-147.39;57.48
3524;BME280;1776;53.330;11.498;2023-04-05T03:26:43;23983.50;;;-147.39;57.21
3524;BME280;1776;53.330;11.498;2023-04-05T03:29:09;24034.34;;;-147.39;57.26
3524;BME280;1776;53.330;11.498;2023-04-05T03:31:34;23983.50;;;-147.39;57.46
3524;BME280;1776;53.330;11.498;2023-04-05T03:33:59;23969.28;;;-147.39;57.70
3524;BME280;1776;53.330;11.498;2023-04-05T03:36:25;23979.44;;;-147.39;58.14
3524;BME280;1776;53.330;11.498;2023-04-05T03:38:52;23969.28;;;-147.39;58.50
3524;BME280;1776;53.330;11.498;2023-04-05T03:41:20;23977.41;;;-147.39;58.18
3524;BME280;1776;53.330;11.498;2023-04-05T03:43:45;23991.66;;;-147.39;58.18
3524;BME280;1776;53.330;11.498;2023-04-05T03:46:10;23963.19;;;-147.39;58.18
3524;BME280;1776;53.330;11.498;2023-04-05T03:48:36;23977.41;;;-147.39;57.99
3524;BME280;1776;53.330;11.498;2023-04-05T03:51:01;23953.00;;;-147.39;57.85
3524;BME280;1776;53.330;11.498;2023-04-05T03:53:26;23950.97;;;-147.39;58.25
3524;BME280;1776;53.330;11.498;2023-04-05T03:55:53;23971.31;;;-147.39;57.89
3524;BME280;1776;53.330;11.498;2023-04-05T03:58:20;23930.66;;;-147.39;58.39
3524;BME280;1776;53.330;11.498;2023-04-05T04:00:46;23977.41;;;-147.39;58.01
3524;BME280;1776;53.330;11.498;2023-04-05T04:03:11;23955.03;;;-147.39;58.04
3524;BME280;1776;53.330;11.498;2023-04-05T04:05:38;23950.97;;;-147.39;58.38
3524;BME280;1776;53.330;11.498;2023-04-05T04:08:06;23979.44;;;-147.39;57.99
3524;BME280;1776;53.330;11.498;2023-04-05T04:10:33;23979.44;;;-147.39;58.04
3524;BME280;1776;53.330;11.498;2023-04-05T04:12:59;23969.28;;;-147.39;58.10
3524;BME280;1776;53.330;11.498;2023-04-05T04:15:24;23979.44;;;-147.39;58.63
3524;BME280;1776;53.330;11.498;2023-04-05T04:17:50;23950.97;;;-147.39;58.35
3524;BME280;1776;53.330;11.498;2023-04-05T04:20:15;23928.63;;;-147.39;58.52
3524;BME280;1776;53.330;11.498;2023-04-05T04:22:41;23916.41;;;-147.39;58.69
3524;BME280;1776;53.330;11.498;2023-04-05T04:25:07;23924.56;;;-147.39;58.69
3524;BME280;1776;53.330;11.498;2023-04-05T04:27:38;23922.50;;;-147.39;58.94
3524;BME280;1776;53.330;11.498;2023-04-05T04:30:09;23967.25;;;-147.39;58.48
3524;BME280;1776;53.330;11.498;2023-04-05T04:32:35;23936.75;;;-147.39;58.21
3524;BME280;1776;53.330;11.498;2023-04-05T04:35:24;23906.25;;;-147.39;58.32
3524;BME280;1776;53.330;11.498;2023-04-05T04:37:54;23936.75;;;-147.39;58.18
3524;BME280;1776;53.330;11.498;2023-04-05T04:40:43;23961.16;;;-147.39;58.76
3524;BME280;1776;53.330;11.498;2023-04-05T04:43:14;23940.81;;;-147.39;58.58
3524;BME280;1776;53.330;11.498;2023-04-05T04:48:11;23969.28;;;-147.39;58.76
3524;BME280;1776;53.330;11.498;2023-04-05T04:50:38;23916.41;;;-147.39;58.71
3524;BME280;1776;53.330;11.498;2023-04-05T04:53:04;23928.63;;;-147.39;58.80
3524;BME280;1776;53.330;11.498;2023-04-05T04:55:29;23922.50;;;-147.39;58.76
3524;BME280;1776;53.330;11.498;2023-04-05T04:57:57;23924.56;;;-147.39;58.68
3524;BME280;1776;53.330;11.498;2023-04-05T05:00:23;23936.75;;;-147.39;58.87
3524;BME280;1776;53.330;11.498;2023-04-05T05:02:50;23898.13;;;-147.39;58.78
3524;BME280;1776;53.330;11.498;2023-04-05T05:05:17;23896.09;;;-147.39;58.74
3524;BME280;1776;53.330;11.498;2023-04-05T05:07:47;23898.13;;;-147.39;58.54
3524;BME280;1776;53.330;11.498;2023-04-05T05:10:12;23902.19;;;-147.39;58.61
3524;BME280;1776;53.330;11.498;2023-04-05T05:12:41;23999.78;;;-147.39;58.72
3524;BME280;1776;53.330;11.498;2023-04-05T05:15:07;23898.13;;;-147.39;58.50
3524;BME280;1776;53.330;11.498;2023-04-05T05:17:32;23936.75;;;-147.39;58.44
3524;BME280;1776;53.330;11.498;2023-04-05T05:19:59;23944.88;;;-147.39;58.61
3524;BME280;1776;53.330;11.498;2023-04-05T05:22:25;23920.47;;;-147.39;58.22
3524;BME280;1776;53.330;11.498;2023-04-05T05:24:51;23920.47;;;-147.39;58.47
3524;BME280;1776;53.330;11.498;2023-04-05T05:27:16;23975.38;;;-147.39;58.38
3524;BME280;1776;53.330;11.498;2023-04-05T05:29:41;23983.50;;;-147.39;58.21
3524;BME280;1776;53.330;11.498;2023-04-05T05:32:07;23916.41;;;-147.39;58.40
3524;BME280;1776;53.330;11.498;2023-04-05T05:34:33;23934.72;;;-147.39;58.58
3524;BME280;1776;53.330;11.498;2023-04-05T05:36:58;23953.00;;;-147.39;58.51
3524;BME280;1776;53.330;11.498;2023-04-05T05:39:24;23944.88;;;-147.39;58.96
3524;BME280;1776;53.330;11.498;2023-04-05T05:41:49;23946.91;;;-147.39;58.69
3524;BME280;1776;53.330;11.498;2023-04-05T05:44:14;23942.84;;;-147.39;58.55
3524;BME280;1776;53.330;11.498;2023-04-05T05:46:40;23924.56;;;-147.39;58.63
3524;BME280;1776;53.330;11.498;2023-04-05T05:49:05;23942.84;;;-147.39;58.56
3524;BME280;1776;53.330;11.498;2023-04-05T05:51:30;23946.91;;;-147.39;58.04
3524;BME280;1776;53.330;11.498;2023-04-05T05:53:56;23955.03;;;-147.39;57.54
3524;BME280;1776;53.330;11.498;2023-04-05T05:56:21;23959.13;;;-147.39;57.57
3524;BME280;1776;53.330;11.498;2023-04-05T05:58:47;23967.25;;;-147.39;57.42
3524;BME280;1776;53.330;11.498;2023-04-05T06:01:12;23995.72;;;-147.39;56.85
3524;BME280;1776;53.330;11.498;2023-04-05T06:03:38;24014.00;;;-147.39;56.49
3524;BME280;1776;53.330;11.498;2023-04-05T06:06:03;24001.81;;;-147.39;56.19
3524;BME280;1776;53.330;11.498;2023-04-05T06:08:32;23985.53;;;-147.39;56.14
3524;BME280;1776;53.330;11.498;2023-04-05T06:10:58;23963.19;;;-147.39;56.05
3524;BME280;1776;53.330;11.498;2023-04-05T06:13:23;23997.75;;;-147.39;55.83
3524;BME280;1776;53.330;11.498;2023-04-05T06:15:49;24018.06;;;-147.39;56.25
3524;BME280;1776;53.330;11.498;2023-04-05T06:18:15;23995.72;;;-147.39;56.74
3524;BME280;1776;53.330;11.498;2023-04-05T06:20:41;23985.53;;;-147.39;57.72
3524;BME280;1776;53.330;11.498;2023-04-05T06:23:11;23959.13;;;-147.39;56.95
3524;BME280;1776;53.330;11.498;2023-04-05T06:25:36;24020.09;;;-147.39;56.32
3524;BME280;1776;53.330;11.498;2023-04-05T06:28:03;24044.50;;;-147.39;55.71
3524;BME280;1776;53.330;11.498;2023-04-05T06:30:29;24024.19;;;-147.39;55.50
3524;BME280;1776;53.330;11.498;2023-04-05T06:32:55;24016.03;;;-147.39;56.61
3524;BME280;1776;53.330;11.498;2023-04-05T06:35:21;24062.81;;;-147.39;56.88
3524;BME280;1776;53.330;11.498;2023-04-05T06:37:46;24024.19;;;-147.39;56.41
3524;BME280;1776;53.330;11.498;2023-04-05T06:40:12;24030.28;;;-147.39;56.58
3524;BME280;1776;53.330;11.498;2023-04-05T06:42:38;24009.94;;;-147.39;56.75
3524;BME280;1776;53.330;11.498;2023-04-05T06:45:03;24016.03;;;-147.39;56.29
3524;BME280;1776;53.330;11.498;2023-04-05T06:47:33;24066.88;;;-147.39;56.12
3524;BME280;1776;53.330;11.498;2023-04-05T06:49:58;24024.19;;;-147.39;55.47
3524;BME280;1776;53.330;11.498;2023-04-05T06:52:23;24079.06;;;-147.39;55.88
3524;BME280;1776;53.330;11.498;2023-04-05T06:54:49;24075.00;;;-147.39;55.30
3524;BME280;1776;53.330;11.498;2023-04-05T06:57:14;24068.91;;;-147.39;54.49
3524;BME280;1776;53.330;11.498;2023-04-05T06:59:39;24052.63;;;-147.39;53.85
3524;BME280;1776;53.330;11.498;2023-04-05T07:02:05;24081.09;;;-147.39;53.94
3524;BME280;1776;53.330;11.498;2023-04-05T07:04:30;24105.50;;;-147.39;53.79
3524;BME280;1776;53.330;11.498;2023-04-05T07:07:00;24070.94;;;-147.39;53.74
3524;BME280;1776;53.330;11.498;2023-04-05T07:09:26;24113.63;;;-147.39;52.87
3524;BME280;1776;53.330;11.498;2023-04-05T07:11:54;24099.41;;;-147.39;52.42
3524;BME280;1776;53.330;11.498;2023-04-05T07:14:21;24127.88;;;-147.39;51.96
3524;BME280;1776;53.330;11.498;2023-04-05T07:16:46;24133.97;;;-147.39;51.88
3524;BME280;1776;53.330;11.498;2023-04-05T07:19:12;24156.34;;;-147.39;51.88
3524;BME280;1776;53.330;11.498;2023-04-05T07:21:37;24176.66;;;-147.39;52.14
3524;BME280;1776;53.330;11.498;2023-04-05T07:24:03;24168.53;;;-147.39;51.44
3524;BME280;1776;53.330;11.498;2023-04-05T07:26:28;24180.75;;;-147.39;51.04
3524;BME280;1776;53.330;11.498;2023-04-05T07:28:53;24245.81;;;-147.39;50.47
3524;BME280;1776;53.330;11.498;2023-04-05T07:31:19;24188.88;;;-147.39;49.63
3524;BME280;1776;53.330;11.498;2023-04-05T07:33:44;24213.28;;;-147.39;49.03
3524;BME280;1776;53.330;11.498;2023-04-05T07:36:09;24251.91;;;-147.39;48.49
3524;BME280;1776;53.330;11.498;2023-04-05T07:38:35;24294.59;;;-147.39;48.43
3524;BME280;1776;53.330;11.498;2023-04-05T07:41:00;24284.44;;;-147.39;48.00
3524;BME280;1776;53.330;11.498;2023-04-05T07:43:25;24292.56;;;-147.39;48.13
3524;BME280;1776;53.330;11.498;2023-04-05T07:45:51;24258.00;;;-147.39;47.90
3524;BME280;1776;53.330;11.498;2023-04-05T07:48:20;24294.59;;;-147.39;47.78
3524;BME280;1776;53.330;11.498;2023-04-05T07:50:45;24321.03;;;-147.39;46.53
3524;BME280;1776;53.330;11.498;2023-04-05T07:53:12;24351.53;;;-147.39;45.70
3524;BME280;1776;53.330;11.498;2023-04-05T07:55:38;24402.38;;;-147.39;44.50
3524;BME280;1776;53.330;11.498;2023-04-05T07:58:03;24422.72;;;-147.39;42.64
3524;BME280;1776;53.330;11.498;2023-04-05T08:00:28;24465.41;;;-147.39;42.53
3524;BME280;1776;53.330;11.498;2023-04-05T08:02:53;24426.78;;;-147.39;41.60
3524;BME280;1776;53.330;11.498;2023-04-05T08:05:19;24477.63;;;-147.39;41.89
3524;BME280;1776;53.330;11.498;2023-04-05T08:07:44;24465.41;;;-147.39;41.09
3524;BME280;1776;53.330;11.498;2023-04-05T08:10:10;24504.06;;;-147.39;41.19
3524;BME280;1776;53.330;11.498;2023-04-05T08:12:35;24487.78;;;-147.39;41.38
3524;BME280;1776;53.330;11.498;2023-04-05T08:15:00;24526.41;;;-147.39;41.61
3524;BME280;1776;53.330;11.498;2023-04-05T08:17:26;24532.50;;;-147.39;41.49
3524;BME280;1776;53.330;11.498;2023-04-05T08:19:52;24485.75;;;-147.39;40.63
3524;BME280;1776;53.330;11.498;2023-04-05T08:22:18;24536.59;;;-147.39;41.10
3524;BME280;1776;53.330;11.498;2023-04-05T08:24:44;24552.84;;;-147.39;41.17
3524;BME280;1776;53.330;11.498;2023-04-05T08:27:09;24593.53;;;-147.39;40.50
3524;BME280;1776;53.330;11.498;2023-04-05T08:29:35;24556.91;;;-147.39;40.09
3524;BME280;1776;53.330;11.498;2023-04-05T08:32:01;24626.06;;;-147.39;40.36
3524;BME280;1776;53.330;11.498;2023-04-05T08:34:26;24640.28;;;-147.39;39.97
3524;BME280;1776;53.330;11.498;2023-04-05T08:36:51;24697.22;;;-147.39;39.27
3524;BME280;1776;53.330;11.498;2023-04-05T08:39:16;24741.97;;;-147.39;38.71
3524;BME280;1776;53.330;11.498;2023-04-05T08:41:49;24752.13;;;-147.39;37.56
3524;BME280;1776;53.330;11.498;2023-04-05T08:44:21;24739.94;;;-147.39;37.28
3524;BME280;1776;53.330;11.498;2023-04-05T08:46:47;24774.50;;;-147.39;37.14
3524;BME280;1776;53.330;11.498;2023-04-05T08:49:13;24782.66;;;-147.39;38.25
3524;BME280;1776;53.330;11.498;2023-04-05T08:51:39;24811.13;;;-147.39;38.18
3524;BME280;1776;53.330;11.498;2023-04-05T08:54:05;24835.53;;;-147.39;37.92
3524;BME280;1776;53.330;11.498;2023-04-05T08:56:31;24870.09;;;-147.39;36.36
3524;BME280;1776;53.330;11.498;2023-04-05T09:01:28;24841.63;;;-147.39;36.32
3524;BME280;1776;53.330;11.498;2023-04-05T09:03:56;24868.06;;;-147.39;37.49
3524;BME280;1776;53.330;11.498;2023-04-05T09:06:24;24857.88;;;-147.39;37.36
3524;BME280;1776;53.330;11.498;2023-04-05T09:08:51;24868.06;;;-147.39;37.01
3524;BME280;1776;53.330;11.498;2023-04-05T09:11:17;24870.09;;;-147.39;37.11
3524;BME280;1776;53.330;11.498;2023-04-05T09:13:43;24882.28;;;-147.39;38.01
3524;BME280;1776;53.330;11.498;2023-04-05T09:16:08;24888.41;;;-147.39;37.38
3524;BME280;1776;53.330;11.498;2023-04-05T09:18:34;24896.53;;;-147.39;37.53
3524;BME280;1776;53.330;11.498;2023-04-05T09:21:03;24894.50;;;-147.39;37.10
3524;BME280;1776;53.330;11.498;2023-04-05T09:23:29;24943.31;;;-147.39;37.58
3524;BME280;1776;53.330;11.498;2023-04-05T09:25:55;24953.47;;;-147.39;37.17
3524;BME280;1776;53.330;11.498;2023-04-05T09:28:20;25018.56;;;-147.39;35.76
3524;BME280;1776;53.330;11.498;2023-04-05T09:30:46;25053.13;;;-147.39;36.08
3524;BME280;1776;53.330;11.498;2023-04-05T09:33:15;25126.34;;;-147.39;34.76
3524;BME280;1776;53.330;11.498;2023-04-05T09:35:43;25150.75;;;-147.39;34.83
3524;BME280;1776;53.330;11.498;2023-04-05T09:38:08;25262.59;;;-147.39;34.10
3524;BME280;1776;53.330;11.498;2023-04-05T09:40:47;25305.31;;;-147.39;33.80
3524;BME280;1776;53.330;11.498;2023-04-05T09:43:36;25327.69;;;-147.39;33.63
3524;BME280;1776;53.330;11.498;2023-04-05T09:46:02;25307.34;;;-147.39;34.03
3524;BME280;1776;53.330;11.498;2023-04-05T09:48:47;25390.75;;;-147.39;32.60
3524;BME280;1776;53.330;11.498;2023-04-05T09:51:14;25394.81;;;-147.39;33.36
3524;BME280;1776;53.330;11.498;2023-04-05T09:54:15;25404.97;;;-147.39;32.70
3524;BME280;1776;53.330;11.498;2023-04-05T09:56:53;25305.31;;;-147.39;33.42
3524;BME280;1776;53.330;11.498;2023-04-05T09:59:18;25199.56;;;-147.39;34.72
3524;BME280;1776;53.330;11.498;2023-04-05T10:01:43;25313.47;;;-147.39;34.32
3524;BME280;1776;53.330;11.498;2023-04-05T10:04:09;25307.34;;;-147.39;33.77
3524;BME280;1776;53.330;11.498;2023-04-05T10:06:37;25226.00;;;-147.39;33.79
3524;BME280;1776;53.330;11.498;2023-04-05T10:09:04;25323.63;;;-147.39;33.90
3524;BME280;1776;53.330;11.498;2023-04-05T10:11:33;25378.53;;;-147.39;33.38
3524;BME280;1776;53.330;11.498;2023-04-05T10:14:01;25313.47;;;-147.39;33.42
3524;BME280;1776;53.330;11.498;2023-04-05T10:16:44;25313.47;;;-147.39;33.12
3524;BME280;1776;53.330;11.498;2023-04-05T10:19:28;25321.59;;;-147.39;33.15
3524;BME280;1776;53.330;11.498;2023-04-05T10:21:59;25435.50;;;-147.39;32.95
3524;BME280;1776;53.330;11.498;2023-04-05T10:27:03;25398.88;;;-147.39;32.53
3524;BME280;1776;53.330;11.498;2023-04-05T10:29:37;25421.25;;;-147.39;32.57
3524;BME280;1776;53.330;11.498;2023-04-05T10:32:12;25335.84;;;-147.39;33.24
3524;BME280;1776;53.330;11.498;2023-04-05T10:34:44;25386.69;;;-147.39;33.38
3524;BME280;1776;53.330;11.498;2023-04-05T10:37:25;25451.75;;;-147.39;32.48
3524;BME280;1776;53.330;11.498;2023-04-05T10:39:53;25384.66;;;-147.39;33.22
3524;BME280;1776;53.330;11.498;2023-04-05T10:42:26;25433.47;;;-147.39;32.95
3524;BME280;1776;53.330;11.498;2023-04-05T10:44:57;25480.25;;;-147.39;32.20
3524;BME280;1776;53.330;11.498;2023-04-05T10:47:27;25512.78;;;-147.39;31.88
3524;BME280;1776;53.330;11.498;2023-04-05T10:49:55;25561.59;;;-147.39;31.87
3524;BME280;1776;53.330;11.498;2023-04-05T10:52:21;25563.63;;;-147.39;31.57
3524;BME280;1776;53.330;11.498;2023-04-05T10:54:48;25634.81;;;-147.39;31.86
3524;BME280;1776;53.330;11.498;2023-04-05T10:57:14;25616.53;;;-147.39;32.28
3524;BME280;1776;53.330;11.498;2023-04-05T10:59:41;25602.28;;;-147.39;31.43
3524;BME280;1776;53.330;11.498;2023-04-05T11:02:08;25529.06;;;-147.39;32.31
3524;BME280;1776;53.330;11.498;2023-04-05T11:04:33;25565.66;;;-147.39;32.93
3524;BME280;1776;53.330;11.498;2023-04-05T11:09:39;25628.72;;;-147.39;31.94
3524;BME280;1776;53.330;11.498;2023-04-05T11:12:04;25693.81;;;-147.39;31.72
3524;BME280;1776;53.330;11.498;2023-04-05T11:16:57;25551.44;;;-147.39;31.37
3524;BME280;1776;53.330;11.498;2023-04-05T11:22:07;25565.66;;;-147.39;32.35
3524;BME280;1776;53.330;11.498;2023-04-05T11:24:52;25514.81;;;-147.39;32.43
3524;BME280;1776;53.330;11.498;2023-04-05T11:27:28;25447.69;;;-147.39;32.68
3524;BME280;1776;53.330;11.498;2023-04-05T11:29:56;25480.25;;;-147.39;33.62
3524;BME280;1776;53.330;11.498;2023-04-05T11:32:22;25459.91;;;-147.39;33.70
3524;BME280;1776;53.330;11.498;2023-04-05T11:35:05;25423.28;;;-147.39;32.86
3524;BME280;1776;53.330;11.498;2023-04-05T11:40:25;25463.97;;;-147.39;34.22
3524;BME280;1776;53.330;11.498;2023-04-05T11:43:05;25425.31;;;-147.39;33.38
3524;BME280;1776;53.330;11.498;2023-04-05T11:45:32;25443.63;;;-147.39;33.63
3524;BME280;1776;53.330;11.498;2023-04-05T11:47:59;25409.06;;;-147.39;33.19
3524;BME280;1776;53.330;11.498;2023-04-05T11:50:25;25447.69;;;-147.39;32.96
3524;BME280;1776;53.330;11.498;2023-04-05T11:53:16;25423.28;;;-147.39;33.64
3524;BME280;1776;53.330;11.498;2023-04-05T11:55:47;25492.44;;;-147.39;33.16
3524;BME280;1776;53.330;11.498;2023-04-05T11:58:13;25490.41;;;-147.39;32.47
3524;BME280;1776;53.330;11.498;2023-04-05T12:00:43;25372.44;;;-147.39;33.24
3524;BME280;1776;53.330;11.498;2023-04-05T12:03:18;25364.31;;;-147.39;33.38
3524;BME280;1776;53.330;11.498;2023-04-05T12:05:53;25415.16;;;-147.39;32.60
3524;BME280;1776;53.330;11.498;2023-04-05T12:08:19;25394.81;;;-147.39;33.46
3524;BME280;1776;53.330;11.498;2023-04-05T12:10:58;25376.50;;;-147.39;33.54
3524;BME280;1776;53.330;11.498;2023-04-05T12:13:30;25425.31;;;-147.39;33.99
3524;BME280;1776;53.330;11.498;2023-04-05T12:15:57;25449.72;;;-147.39;33.73
3524;BME280;1776;53.330;11.498;2023-04-05T12:18:24;25472.09;;;-147.39;33.51
3524;BME280;1776;53.330;11.498;2023-04-05T12:20:51;25453.81;;;-147.39;32.98
3524;BME280;1776;53.330;11.498;2023-04-05T12:23:16;25506.69;;;-147.39;33.71
3524;BME280;1776;53.330;11.498;2023-04-05T12:25:45;25470.06;;;-147.39;32.51
3524;BME280;1776;53.330;11.498;2023-04-05T12:28:11;25484.31;;;-147.39;32.99
3524;BME280;1776;53.330;11.498;2023-04-05T12:30:50;25457.88;;;-147.39;32.56
3524;BME280;1776;53.330;11.498;2023-04-05T12:33:33;25490.41;;;-147.39;32.31
3524;BME280;1776;53.330;11.498;2023-04-05T12:36:04;25492.44;;;-147.39;33.16
3524;BME280;1776;53.330;11.498;2023-04-05T12:38:30;25527.03;;;-147.39;32.88
3524;BME280;1776;53.330;11.498;2023-04-05T12:40:59;25488.38;;;-147.39;32.47
3524;BME280;1776;53.330;11.498;2023-04-05T12:43:25;25498.53;;;-147.39;32.35
3524;BME280;1776;53.330;11.498;2023-04-05T12:45:53;25474.13;;;-147.39;33.01
3524;BME280;1776;53.330;11.498;2023-04-05T12:48:22;25492.44;;;-147.39;33.12
3524;BME280;1776;53.330;11.498;2023-04-05T12:50:49;25549.41;;;-147.39;32.59
3524;BME280;1776;53.330;11.498;2023-04-05T12:53:22;25531.09;;;-147.39;32.88
3524;BME280;1776;53.330;11.498;2023-04-05T12:55:51;25512.78;;;-147.39;33.23
3524;BME280;1776;53.330;11.498;2023-04-05T12:58:17;25616.53;;;-147.39;32.74
3524;BME280;1776;53.330;11.498;2023-04-05T13:00:43;25567.69;;;-147.39;32.05
3524;BME280;1776;53.330;11.498;2023-04-05T13:03:19;25553.47;;;-147.39;32.64
3524;BME280;1776;53.330;11.498;2023-04-05T13:05:46;25565.66;;;-147.39;31.89
3524;BME280;1776;53.330;11.498;2023-04-05T13:08:15;25539.22;;;-147.39;31.74
3524;BME280;1776;53.330;11.498;2023-04-05T13:10:43;25567.69;;;-147.39;31.90
3524;BME280;1776;53.330;11.498;2023-04-05T13:13:08;25539.22;;;-147.39;32.70
3524;BME280;1776;53.330;11.498;2023-04-05T13:15:34;25537.19;;;-147.39;32.38
3524;BME280;1776;53.330;11.498;2023-04-05T13:17:59;25449.72;;;-147.39;31.74
3524;BME280;1776;53.330;11.498;2023-04-05T13:20:24;25425.31;;;-147.39;32.68
3524;BME280;1776;53.330;11.498;2023-04-05T13:22:50;25421.25;;;-147.39;33.09